Time;durP1;ratioP1;P1;durP2;ratioP2;P2;SDS_P1;SDS_P2;PMS_P1;PMS_P2;Temp;Humidity;BMP_temperature;BMP_pressure;BME280_temperature;BME280_humidity;BME280_pressure;Samples;Min_cycle;Max_cycle;Signal;HPM_P1;HPM_P2
2023/06/29 04:01:36;;;;;;;1.03;0.93;;;19.70;1.00;;;;;;5555970;23;20485;-72
2023/06/29 04:04:04;;;;;;;0.60;0.10;;;19.50;1.00;;;;;;4999163;28;20509;-73
2023/06/29 04:06:32;;;;;;;0.60;0.20;;;19.50;1.00;;;;;;5002207;28;20451;-70
2023/06/29 04:09:00;;;;;;;0.60;0.20;;;19.50;1.00;;;;;;5001618;28;21017;-72
2023/06/29 04:11:29;;;;;;;0.60;0.10;;;19.50;1.00;;;;;;5001121;28;20536;-71
2023/06/29 04:13:57;;;;;;;0.60;0.20;;;19.50;1.00;;;;;;4998275;28;20473;-72
2023/06/29 04:16:24;;;;;;;0.70;0.17;;;19.50;1.00;;;;;;4997109;23;20504;-73
2023/06/29 04:18:54;;;;;;;0.60;0.20;;;19.60;1.00;;;;;;4975399;28;21481;-72
2023/06/29 04:21:22;;;;;;;0.60;0.30;;;19.60;1.00;;;;;;4976508;28;20503;-72
2023/06/29 04:23:49;;;;;;;0.60;0.20;;;19.60;1.00;;;;;;4975482;28;20495;-73
2023/06/29 04:26:17;;;;;;;0.60;0.10;;;19.70;1.00;;;;;;4975763;28;20572;-73
2023/06/29 04:28:47;;;;;;;0.60;0.10;;;19.70;1.00;;;;;;4976272;28;20453;-72
2023/06/29 04:31:15;;;;;;;0.60;0.20;;;19.70;1.00;;;;;;4976711;28;20471;-73
2023/06/29 04:33:43;;;;;;;0.60;0.20;;;19.70;1.00;;;;;;4988183;28;20438;-73
2023/06/29 04:36:13;;;;;;;0.60;0.20;;;19.70;1.00;;;;;;5001418;28;20527;-73
2023/06/29 04:38:41;;;;;;;0.60;0.20;;;19.90;1.00;;;;;;4996136;28;21050;-73
2023/06/29 04:41:09;;;;;;;0.60;0.20;;;19.90;1.00;;;;;;4995737;28;20479;-73
2023/06/29 04:43:38;;;;;;;0.60;0.13;;;;;;;;;;4995492;28;20500;-73
2023/06/29 04:46:06;;;;;;;1.60;1.50;;;19.90;1.00;;;;;;4997424;28;20527;-72
2023/06/29 04:48:37;;;;;;;1.77;1.47;;;19.90;1.00;;;;;;4997625;28;20470;-71
2023/06/29 04:51:06;;;;;;;0.60;0.20;;;20.00;1.00;;;;;;4971029;28;20541;-71
2023/06/29 04:53:36;;;;;;;0.60;0.20;;;20.00;1.00;;;;;;4956495;29;20537;-71
2023/06/29 04:56:04;;;;;;;0.60;0.20;;;20.00;1.00;;;;;;4955858;29;20490;-71
2023/06/29 04:58:32;;;;;;;0.60;0.20;;;20.00;1.00;;;;;;4956048;29;20454;-71
2023/06/29 05:01:00;;;;;;;0.60;0.10;;;20.00;1.00;;;;;;4956462;29;20882;-71
2023/06/29 05:03:28;;;;;;;0.60;0.20;;;;;;;;;;4955788;29;20474;-72
2023/06/29 05:05:56;;;;;;;0.60;0.20;;;20.10;1.00;;;;;;4955870;29;20478;-72
2023/06/29 05:08:24;;;;;;;0.60;0.20;;;20.10;1.00;;;;;;4955611;29;20451;-71
2023/06/29 05:10:53;;;;;;;0.60;0.20;;;20.20;1.00;;;;;;4969999;28;20441;-72
2023/06/29 05:13:21;;;;;;;0.60;0.20;;;20.20;1.00;;;;;;4994352;28;20481;-71
2023/06/29 05:15:49;;;;;;;0.60;0.20;;;20.20;1.00;;;;;;4993665;28;20910;-72
2023/06/29 05:18:17;;;;;;;0.60;0.20;;;20.20;1.00;;;;;;4994339;28;20479;-72
2023/06/29 05:20:45;;;;;;;0.60;0.20;;;20.10;1.00;;;;;;4993866;28;20815;-72
2023/06/29 05:23:13;;;;;;;0.60;0.20;;;;;;;;;;4993672;28;20520;-72
2023/06/29 05:25:41;;;;;;;0.60;0.20;;;20.10;1.00;;;;;;4979005;28;20514;-73
2023/06/29 05:28:11;;;;;;;0.60;0.20;;;20.10;1.00;;;;;;4981209;28;20473;-71
2023/06/29 05:30:39;;;;;;;0.60;0.20;;;20.20;1.00;;;;;;4982298;28;20528;-68
2023/06/29 05:33:08;;;;;;;0.60;0.20;;;;;;;;;;4993003;28;20477;-69
2023/06/29 05:35:36;;;;;;;0.60;0.10;;;20.20;1.00;;;;;;4982242;28;20473;-68
2023/06/29 05:38:04;;;;;;;0.60;0.10;;;19.60;1.00;;;;;;4981743;28;20557;-69
2023/06/29 05:40:32;;;;;;;0.60;0.20;;;20.30;1.00;;;;;;4989923;28;20526;-72
2023/06/29 05:43:00;;;;;;;0.60;0.20;;;20.40;1.00;;;;;;4993542;28;20519;-72
2023/06/29 05:45:29;;;;;;;0.73;0.67;;;20.40;1.00;;;;;;4993117;28;20572;-73
2023/06/29 05:47:57;;;;;;;0.73;0.40;;;20.40;1.00;;;;;;4993481;28;20481;-73
2023/06/29 05:50:25;;;;;;;0.60;0.20;;;20.50;1.00;;;;;;4986890;28;20544;-71
2023/06/29 05:52:53;;;;;;;0.60;0.20;;;20.50;1.00;;;;;;4978649;28;20544;-72
2023/06/29 05:55:23;;;;;;;0.90;0.20;;;20.60;1.00;;;;;;4987953;28;20443;-73
2023/06/29 05:57:51;;;;;;;0.60;0.20;;;20.50;1.00;;;;;;4992678;28;20464;-72
2023/06/29 06:00:20;;;;;;;0.60;0.10;;;20.60;1.00;;;;;;4993033;28;20540;-73
2023/06/29 06:02:51;;;;;;;0.60;0.10;;;20.60;1.00;;;;;;4992005;28;20540;-72
2023/06/29 06:05:19;;;;;;;0.80;0.20;;;20.40;1.00;;;;;;4982092;28;20895;-73
2023/06/29 06:07:47;;;;;;;0.60;0.10;;;20.70;1.00;;;;;;4992564;28;20553;-74
2023/06/29 06:10:15;;;;;;;0.60;0.10;;;20.70;1.00;;;;;;4990356;28;20992;-73
2023/06/29 06:12:44;;;;;;;0.60;0.10;;;;;;;;;;4972551;28;20485;-73
2023/06/29 06:15:14;;;;;;;1.10;0.27;;;21.00;1.00;;;;;;4972663;28;20537;-73
2023/06/29 06:17:42;;;;;;;0.60;0.10;;;21.00;1.00;;;;;;4973197;28;20445;-72
2023/06/29 06:20:12;;;;;;;1.13;0.70;;;21.00;1.00;;;;;;4973600;28;20442;-75
2023/06/29 06:22:40;;;;;;;0.60;0.17;;;21.00;1.00;;;;;;4971996;28;20477;-72
2023/06/29 06:25:09;;;;;;;0.80;0.17;;;21.10;1.00;;;;;;4973131;28;20485;-73
2023/06/29 06:27:37;;;;;;;0.70;0.63;;;21.00;1.00;;;;;;4960419;28;20491;-73
2023/06/29 06:30:07;;;;;;;0.60;0.10;;;21.10;1.00;;;;;;4954658;28;20510;-72
2023/06/29 06:32:35;;;;;;;0.60;0.20;;;21.10;1.00;;;;;;4953655;28;20535;-74
2023/06/29 06:35:04;;;;;;;0.60;0.20;;;21.20;1.00;;;;;;4973980;28;20447;-72
2023/06/29 06:37:33;;;;;;;0.60;0.20;;;21.30;1.00;;;;;;4989141;28;20461;-72
2023/06/29 06:40:02;;;;;;;0.60;0.20;;;21.30;1.00;;;;;;4976265;28;20449;-74
2023/06/29 06:42:31;;;;;;;0.70;0.37;;;;;;;;;;4958445;28;20451;-73
2023/06/29 06:45:00;;;;;;;0.60;0.10;;;;;;;;;;4953683;29;20526;-72
2023/06/29 06:47:28;;;;;;;0.60;0.20;;;21.60;1.00;;;;;;4954058;29;20474;-72
2023/06/29 06:49:56;;;;;;;0.60;0.10;;;;;;;;;;4953547;28;20615;-72
2023/06/29 06:52:24;;;;;;;0.60;0.20;;;21.60;1.00;;;;;;4954092;29;20454;-72
2023/06/29 06:54:53;;;;;;;0.60;0.10;;;21.60;1.00;;;;;;4954372;29;20542;-72
2023/06/29 06:57:21;;;;;;;0.60;0.10;;;21.60;1.00;;;;;;4954227;29;20563;-72
2023/06/29 06:59:50;;;;;;;0.60;0.20;;;;;;;;;;4972839;28;20575;-72
2023/06/29 07:02:18;;;;;;;0.60;0.20;;;21.70;1.00;;;;;;4976742;28;20463;-72
2023/06/29 07:04:46;;;;;;;0.63;0.20;;;21.80;1.00;;;;;;4969566;28;20483;-72
2023/06/29 07:07:14;;;;;;;0.70;0.10;;;21.90;1.00;;;;;;4955253;29;20503;-72
2023/06/29 07:09:43;;;;;;;0.70;0.20;;;;;;;;;;4954011;28;20455;-72
2023/06/29 07:12:12;;;;;;;0.70;0.10;;;22.10;1.00;;;;;;4972145;28;20457;-73
2023/06/29 07:14:40;;;;;;;0.70;0.20;;;22.20;1.00;;;;;;4972377;28;20478;-73
2023/06/29 07:17:08;;;;;;;0.60;0.10;;;22.30;1.00;;;;;;4973139;28;20470;-72
2023/06/29 07:19:36;;;;;;;0.70;0.10;;;22.40;1.00;;;;;;4984219;28;20446;-72
2023/06/29 07:22:07;;;;;;;0.60;0.10;;;;;;;;;;4984225;28;20877;-73
2023/06/29 07:24:38;;;;;;;0.70;0.20;;;22.40;1.00;;;;;;4953560;28;21068;-72
2023/06/29 07:27:06;;;;;;;0.67;0.10;;;22.40;1.00;;;;;;4953048;28;20511;-72
2023/06/29 07:29:35;;;;;;;0.70;0.10;;;22.50;1.00;;;;;;4952456;29;21026;-72
2023/06/29 07:32:04;;;;;;;0.70;0.20;;;;;;;;;;4952893;29;20487;-73
2023/06/29 07:34:32;;;;;;;0.70;0.20;;;;;;;;;;4952303;28;20452;-72
2023/06/29 07:37:00;;;;;;;0.70;0.10;;;22.80;1.00;;;;;;4956554;29;20528;-73
2023/06/29 07:39:28;;;;;;;0.70;0.30;;;22.90;1.00;;;;;;4956155;29;20923;-72
2023/06/29 07:41:56;;;;;;;1.40;0.57;;;;;;;;;;4956415;29;20456;-72
2023/06/29 07:44:24;;;;;;;0.70;0.10;;;;;;;;;;4956019;29;20456;-71
2023/06/29 07:46:54;;;;;;;0.70;0.20;;;23.00;1.00;;;;;;4955966;28;20505;-72
2023/06/29 07:49:22;;;;;;;0.70;0.10;;;23.20;1.00;;;;;;4956363;29;20519;-72
2023/06/29 07:51:50;;;;;;;0.70;0.20;;;;;;;;;;4955821;29;20450;-73
2023/06/29 07:54:19;;;;;;;0.70;0.20;;;;;;;;;;4955766;29;20549;-73
2023/06/29 07:56:47;;;;;;;0.70;0.20;;;;;;;;;;4983416;28;20467;-73
2023/06/29 07:59:18;;;;;;;0.70;0.10;;;;;;;;;;4983622;28;20470;-72
2023/06/29 08:01:47;;;;;;;0.70;0.20;;;23.50;1.00;;;;;;4984247;28;20531;-72
2023/06/29 08:04:17;;;;;;;0.70;0.10;;;23.50;1.00;;;;;;4975198;28;20453;-72
2023/06/29 08:07:06;;;;;;;0.70;0.20;;;23.50;1.00;;;;;;4979287;28;20452;-72
2023/06/29 08:09:38;;;;;;;0.70;0.20;;;;;;;;;;4986682;28;20499;-71
2023/06/29 08:12:07;;;;;;;0.70;0.20;;;23.70;1.00;;;;;;4989806;28;20494;-71
2023/06/29 08:14:35;;;;;;;0.80;0.30;;;23.70;1.00;;;;;;4977586;28;20605;-72
2023/06/29 08:17:03;;;;;;;0.70;0.10;;;23.70;1.00;;;;;;4975132;28;20483;-72
2023/06/29 08:19:33;;;;;;;0.70;0.17;;;23.80;1.00;;;;;;4980184;28;20440;-72
2023/06/29 08:22:01;;;;;;;0.70;0.10;;;;;;;;;;4992016;28;20486;-72
2023/06/29 08:24:29;;;;;;;0.70;0.10;;;;;;;;;;4974779;28;20455;-72
2023/06/29 08:26:57;;;;;;;0.70;0.20;;;;;;;;;;4971520;28;20489;-72
2023/06/29 08:29:26;;;;;;;0.70;0.20;;;;;;;;;;4974237;28;20456;-72
2023/06/29 08:31:54;;;;;;;0.70;0.10;;;;;;;;;;4975151;28;20515;-71
2023/06/29 08:34:22;;;;;;;0.70;0.20;;;;;;;;;;4974891;28;20517;-73
2023/06/29 08:36:51;;;;;;;0.70;0.30;;;24.50;1.00;;;;;;4975291;28;20479;-73
2023/06/29 08:39:19;;;;;;;0.70;0.20;;;24.40;1.00;;;;;;4957683;28;20458;-71
2023/06/29 08:41:47;;;;;;;0.70;0.13;;;24.50;1.00;;;;;;4957197;29;20944;-73
2023/06/29 08:44:16;;;;;;;0.70;0.20;;;;;;;;;;4964340;28;21029;-72
2023/06/29 08:46:46;;;;;;;0.70;0.20;;;24.50;1.00;;;;;;4971053;28;20956;-71
2023/06/29 08:49:16;;;;;;;0.70;0.13;;;24.50;1.00;;;;;;4955248;28;20447;-72
2023/06/29 08:51:47;;;;;;;0.70;0.10;;;24.50;1.00;;;;;;4954275;28;20928;-72
2023/06/29 08:54:16;;;;;;;0.70;0.20;;;24.60;1.00;;;;;;4954336;29;20641;-71
2023/06/29 08:56:45;;;;;;;0.70;0.20;;;;;;;;;;4956013;29;20474;-77
2023/06/29 08:59:13;;;;;;;0.70;0.20;;;24.70;1.00;;;;;;4955439;29;20478;-72
2023/06/29 09:01:41;;;;;;;0.70;0.10;;;;;;;;;;4959750;28;20456;-72
2023/06/29 09:04:09;;;;;;;2.03;1.93;;;24.80;1.00;;;;;;4973306;28;20508;-72
2023/06/29 09:06:37;;;;;;;0.70;0.17;;;;;;;;;;4974315;28;21018;-72
2023/06/29 09:09:06;;;;;;;0.70;0.10;;;24.70;1.00;;;;;;4974477;28;20500;-72
2023/06/29 09:11:36;;;;;;;0.70;0.10;;;24.80;1.00;;;;;;4986903;28;20437;-72
2023/06/29 09:14:08;;;;;;;0.70;0.17;;;24.90;1.00;;;;;;4982627;28;20455;-72
2023/06/29 09:16:36;;;;;;;0.70;0.20;;;;;;;;;;4970416;28;20473;-72
2023/06/29 09:19:05;;;;;;;0.70;0.10;;;25.00;1.00;;;;;;4956544;28;20460;-72
2023/06/29 09:21:33;;;;;;;0.70;0.10;;;;;;;;;;4965173;28;20456;-74
2023/06/29 09:24:04;;;;;;;0.70;0.10;;;25.00;1.00;;;;;;4955378;29;20443;-72
2023/06/29 09:26:32;;;;;;;0.70;0.20;;;25.00;1.00;;;;;;4971526;28;20976;-72
2023/06/29 09:29:03;;;;;;;0.70;0.10;;;25.10;1.00;;;;;;4973470;28;20496;-72
2023/06/29 09:31:35;;;;;;;0.70;0.10;;;;;;;;;;4973780;28;20461;-73
2023/06/29 09:34:19;;;;;;;0.70;0.20;;;25.30;1.00;;;;;;4956906;28;20462;-71
2023/06/29 09:36:47;;;;;;;0.70;0.10;;;25.30;1.00;;;;;;4965039;28;20556;-73
2023/06/29 09:39:16;;;;;;;0.70;0.20;;;;;;;;;;4974141;28;20544;-74
2023/06/29 09:41:52;;;;;;;0.70;0.10;;;25.50;1.00;;;;;;4973534;28;20493;-73
2023/06/29 09:44:23;;;;;;;0.70;0.20;;;25.50;1.00;;;;;;4973951;28;20452;-73
2023/06/29 09:46:53;;;;;;;0.70;0.10;;;25.60;1.00;;;;;;4973645;28;20490;-73
2023/06/29 09:49:23;;;;;;;0.70;0.10;;;25.70;1.00;;;;;;4971956;28;20545;-71
2023/06/29 09:52:03;;;;;;;0.70;0.10;;;25.80;1.00;;;;;;4976059;28;20625;-72
2023/06/29 09:54:35;;;;;;;0.70;0.20;;;25.90;1.00;;;;;;4954226;29;20469;-71
2023/06/29 09:57:03;;;;;;;0.70;0.10;;;26.00;1.00;;;;;;4953850;28;20561;-71
2023/06/29 09:59:32;;;;;;;0.70;0.10;;;26.00;1.00;;;;;;4953450;28;20817;-72
2023/06/29 10:02:01;;;;;;;1.67;0.53;;;;;;;;;;4973663;28;20528;-71
2023/06/29 10:04:29;;;;;;;0.70;0.20;;;;;;;;;;4972832;28;20537;-71
2023/06/29 10:07:05;;;;;;;0.70;0.10;;;26.20;1.00;;;;;;4973180;28;20492;-71
2023/06/29 10:09:36;;;;;;;0.80;0.33;;;26.30;1.00;;;;;;4968824;28;20466;-70
2023/06/29 10:12:08;;;;;;;0.70;0.20;;;26.40;1.00;;;;;;4987601;28;20451;-70
2023/06/29 10:14:38;;;;;;;0.70;0.20;;;26.60;1.00;;;;;;4992499;28;20440;-70
2023/06/29 10:17:09;;;;;;;0.70;0.10;;;26.80;1.00;;;;;;5002482;23;20587;-71
2023/06/29 10:19:44;;;;;;;0.70;0.10;;;26.80;1.00;;;;;;4974961;28;20460;-71
2023/06/29 10:22:16;;;;;;;0.70;0.10;;;26.90;1.00;;;;;;4979338;28;20453;-69
2023/06/29 10:24:48;;;;;;;0.70;0.10;;;26.90;1.00;;;;;;4980708;28;20460;-71
2023/06/29 10:27:17;;;;;;;0.70;0.20;;;27.10;1.00;;;;;;4964897;28;20486;-71
2023/06/29 10:29:48;;;;;;;0.70;0.10;;;27.10;1.00;;;;;;4957286;29;20442;-72
2023/06/29 10:32:40;;;;;;;0.70;0.20;;;27.10;1.00;;;;;;4958158;29;20462;-71
2023/06/29 10:35:10;;;;;;;0.70;0.13;;;27.00;1.00;;;;;;4942690;29;20443;-71
2023/06/29 10:37:39;;;;;;;0.70;0.10;;;26.90;1.00;;;;;;4959430;29;20613;-71
2023/06/29 10:40:14;;;;;;;0.70;0.10;;;26.90;1.00;;;;;;4958977;29;20561;-71
2023/06/29 10:42:50;;;;;;;0.70;0.10;;;26.90;1.00;;;;;;4952625;28;20470;-71
2023/06/29 10:45:32;;;;;;;0.70;0.20;;;26.80;1.00;;;;;;4957186;28;20442;-71
2023/06/29 10:48:05;;;;;;;0.70;0.20;;;26.80;1.00;;;;;;4940831;29;20703;-69
2023/06/29 10:50:37;;;;;;;0.70;0.20;;;26.80;1.00;;;;;;4957021;29;20469;-70
2023/06/29 10:53:06;;;;;;;0.70;0.10;;;26.70;1.00;;;;;;4956096;28;20991;-71
2023/06/29 10:55:46;;;;;;;0.70;0.10;;;26.70;1.00;;;;;;4955081;29;20461;-71
2023/06/29 10:58:16;;;;;;;0.70;0.10;;;26.70;1.00;;;;;;4955578;29;20612;-71
2023/06/29 11:00:45;;;;;;;0.70;0.10;;;26.70;1.00;;;;;;4954290;29;20857;-71
2023/06/29 11:03:14;;;;;;;0.70;0.10;;;26.70;1.00;;;;;;4951465;29;20450;-70
2023/06/29 11:05:43;;;;;;;0.70;0.17;;;26.60;1.00;;;;;;4955669;29;20443;-72
2023/06/29 11:08:11;;;;;;;0.70;0.10;;;26.50;1.00;;;;;;4954721;29;20522;-70
2023/06/29 11:10:39;;;;;;;1.37;0.40;;;26.50;1.00;;;;;;4963090;28;20541;-70
2023/06/29 11:13:11;;;;;;;0.70;0.20;;;26.50;1.00;;;;;;4977319;28;20480;-69
2023/06/29 11:15:40;;;;;;;0.70;0.10;;;26.40;1.00;;;;;;4977628;28;20472;-70
2023/06/29 11:18:10;;;;;;;0.70;0.10;;;26.40;1.00;;;;;;4957980;29;20532;-71
2023/06/29 11:20:40;;;;;;;0.70;0.10;;;26.40;1.00;;;;;;4949944;29;20581;-70
2023/06/29 11:23:10;;;;;;;0.70;0.13;;;26.40;1.00;;;;;;4939242;29;20875;-69
2023/06/29 11:25:38;;;;;;;0.90;0.47;;;26.40;1.00;;;;;;4939755;29;20514;-70
2023/06/29 11:28:07;;;;;;;0.70;0.10;;;26.40;1.00;;;;;;4938713;29;21093;-70
2023/06/29 11:30:39;;;;;;;0.70;0.10;;;26.40;1.00;;;;;;4938950;29;20451;-70
2023/06/29 11:33:07;;;;;;;0.70;0.10;;;;;;;;;;4939224;29;20542;-71
2023/06/29 11:35:57;;;;;;;1.53;0.30;;;26.30;1.00;;;;;;4935675;29;20818;-71
2023/06/29 11:38:26;;;;;;;0.70;0.20;;;26.30;1.00;;;;;;4939069;29;20473;-70
2023/06/29 11:41:05;;;;;;;0.70;0.20;;;26.30;1.00;;;;;;4946098;29;20523;-69
2023/06/29 11:43:33;;;;;;;0.70;0.20;;;;;;;;;;4939612;29;20497;-70
2023/06/29 11:46:02;;;;;;;0.70;0.20;;;;;;;;;;4943479;29;20481;-71
2023/06/29 11:48:30;;;;;;;0.70;0.13;;;26.20;1.00;;;;;;4945713;29;20641;-71
2023/06/29 11:51:02;;;;;;;0.70;0.20;;;26.20;1.00;;;;;;4934866;29;20462;-69
2023/06/29 11:53:31;;;;;;;0.70;0.10;;;26.00;1.00;;;;;;4948735;29;20442;-69
2023/06/29 11:55:58;;;;;;;1.47;0.67;;;26.00;1.00;;;;;;4939149;29;20483;-69
2023/06/29 11:58:34;;;;;;;0.80;0.43;;;26.00;1.00;;;;;;4952646;29;20453;-70
2023/06/29 12:01:02;;;;;;;1.00;0.73;;;25.70;1.00;;;;;;4952982;29;20457;-71
2023/06/29 12:03:30;;;;;;;0.70;0.20;;;25.70;1.00;;;;;;4940939;29;20487;-71
2023/06/29 12:06:00;;;;;;;0.80;0.20;;;25.70;1.00;;;;;;4937467;29;20455;-70
2023/06/29 12:08:37;;;;;;;0.70;0.20;;;25.70;1.00;;;;;;4937319;29;20578;-71
2023/06/29 12:11:06;;;;;;;0.70;0.10;;;25.70;1.00;;;;;;4958554;28;20809;-71
2023/06/29 12:13:34;;;;;;;0.70;0.20;;;25.80;1.00;;;;;;4972907;28;20453;-69
2023/06/29 12:16:02;;;;;;;0.70;0.20;;;25.80;1.00;;;;;;4978634;28;20549;-70
2023/06/29 12:18:33;;;;;;;0.70;0.20;;;;;;;;;;4995649;28;20476;-71
2023/06/29 12:21:04;;;;;;;0.70;0.10;;;25.70;1.00;;;;;;4994970;28;20483;-71
2023/06/29 12:23:34;;;;;;;0.70;0.13;;;25.70;1.00;;;;;;4995601;28;20448;-70
2023/06/29 12:26:02;;;;;;;0.70;0.10;;;25.60;1.00;;;;;;4983219;28;20481;-71
2023/06/29 12:28:30;;;;;;;0.70;0.20;;;25.60;1.00;;;;;;4988694;28;20511;-70
2023/06/29 12:30:58;;;;;;;0.70;0.10;;;25.50;1.00;;;;;;4995639;28;20444;-70
2023/06/29 12:33:26;;;;;;;0.70;0.20;;;25.50;1.00;;;;;;4994919;28;20833;-71
2023/06/29 12:35:53;;;;;;;0.80;0.20;;;25.50;1.00;;;;;;4993811;28;20476;-70
2023/06/29 12:38:21;;;;;;;0.70;0.20;;;25.50;1.00;;;;;;4975783;28;20469;-69
2023/06/29 12:40:51;;;;;;;0.70;0.20;;;25.40;1.00;;;;;;4976591;28;20450;-71
2023/06/29 12:43:19;;;;;;;0.70;0.10;;;25.30;1.00;;;;;;4976266;28;20821;-71
2023/06/29 12:45:47;;;;;;;0.70;0.10;;;25.20;1.00;;;;;;4969810;28;20561;-70
2023/06/29 12:48:15;;;;;;;0.80;0.50;;;;;;;;;;4961360;28;20480;-69
2023/06/29 12:50:43;;;;;;;0.70;0.20;;;25.20;1.00;;;;;;4966877;28;20485;-69
2023/06/29 12:53:12;;;;;;;0.70;0.20;;;;;;;;;;4989090;28;20484;-71
2023/06/29 12:55:40;;;;;;;0.70;0.20;;;25.20;1.00;;;;;;4983962;28;20521;-71
2023/06/29 12:58:09;;;;;;;0.70;0.10;;;25.20;1.00;;;;;;4977496;28;20446;-70
2023/06/29 13:00:37;;;;;;;0.70;0.27;;;25.20;1.00;;;;;;4976354;28;20464;-69
2023/06/29 13:03:11;;;;;;;0.70;0.10;;;26.10;1.00;;;;;;4975004;28;20834;-71
2023/06/29 13:05:39;;;;;;;0.70;0.10;;;25.20;1.00;;;;;;4974248;28;20535;-69
2023/06/29 13:08:07;;;;;;;0.70;0.20;;;25.20;1.00;;;;;;4974529;28;20489;-71
2023/06/29 13:10:36;;;;;;;0.70;0.10;;;25.20;1.00;;;;;;4979347;28;20440;-70
2023/06/29 13:13:05;;;;;;;1.03;0.43;;;25.20;1.00;;;;;;4993540;28;20484;-71
2023/06/29 13:15:34;;;;;;;1.27;0.53;;;25.20;1.00;;;;;;4993925;28;20447;-70
2023/06/29 13:18:02;;;;;;;0.70;0.10;;;25.20;1.00;;;;;;4977986;28;20848;-71
2023/06/29 13:20:30;;;;;;;0.70;0.10;;;25.20;1.00;;;;;;4974458;28;20473;-71
2023/06/29 13:23:00;;;;;;;0.70;0.20;;;;;;;;;;4973921;28;20529;-71
2023/06/29 13:25:28;;;;;;;0.70;0.10;;;25.30;1.00;;;;;;4974157;28;20948;-69
2023/06/29 13:27:55;;;;;;;0.70;0.10;;;26.90;1.00;;;;;;4975704;28;20572;-70
2023/06/29 13:30:23;;;;;;;1.07;0.40;;;25.40;1.00;;;;;;4976083;28;20489;-70
2023/06/29 13:32:53;;;;;;;0.80;0.60;;;25.50;1.00;;;;;;4973680;28;20446;-71
2023/06/29 13:35:21;;;;;;;0.70;0.10;;;25.60;1.00;;;;;;4974802;28;20445;-71
2023/06/29 13:37:49;;;;;;;0.70;0.20;;;25.70;1.00;;;;;;4974173;28;20841;-71
2023/06/29 13:40:17;;;;;;;0.70;0.10;;;25.80;1.00;;;;;;4974143;28;20457;-70
2023/06/29 13:42:45;;;;;;;0.70;0.17;;;;;;;;;;4973889;28;20477;-72
2023/06/29 13:45:13;;;;;;;0.70;0.10;;;25.80;1.00;;;;;;4974171;28;20827;-71
2023/06/29 13:47:43;;;;;;;0.70;0.13;;;25.80;1.00;;;;;;4973992;28;20992;-70
2023/06/29 13:50:12;;;;;;;0.70;0.10;;;25.80;1.00;;;;;;4973919;28;20458;-71
2023/06/29 13:52:42;;;;;;;0.70;0.10;;;;;;;;;;4974551;28;20456;-71
2023/06/29 13:55:10;;;;;;;0.70;0.20;;;25.70;1.00;;;;;;4975245;28;20520;-72
2023/06/29 13:57:38;;;;;;;0.70;0.20;;;;;;;;;;4974777;28;20501;-70
2023/06/29 14:00:07;;;;;;;0.90;0.37;;;25.90;1.00;;;;;;4974199;28;20445;-71
2023/06/29 14:02:37;;;;;;;0.70;0.10;;;26.00;1.00;;;;;;4974223;28;20454;-69
2023/06/29 14:05:06;;;;;;;1.90;0.63;;;26.10;1.00;;;;;;4977585;28;21002;-70
2023/06/29 14:07:36;;;;;;;0.73;0.30;;;26.20;1.00;;;;;;4977200;28;20493;-71
2023/06/29 14:10:05;;;;;;;0.70;0.20;;;26.20;1.00;;;;;;4978220;28;20492;-71
2023/06/29 14:12:33;;;;;;;0.80;0.73;;;26.20;1.00;;;;;;4998662;28;20513;-71
2023/06/29 14:15:01;;;;;;;0.70;0.10;;;26.20;1.00;;;;;;4985849;28;21018;-69
2023/06/29 14:17:28;;;;;;;0.70;0.10;;;26.20;1.00;;;;;;4961170;28;20509;-69
2023/06/29 14:19:56;;;;;;;0.70;0.20;;;26.30;1.00;;;;;;4955573;29;20442;-72
2023/06/29 14:22:24;;;;;;;0.70;0.20;;;26.30;1.00;;;;;;4952037;29;20506;-72
2023/06/29 14:24:54;;;;;;;0.80;0.40;;;26.40;1.00;;;;;;4939871;29;20491;-71
2023/06/29 14:27:22;;;;;;;0.70;0.10;;;;;;;;;;4944196;28;20481;-70
2023/06/29 14:29:49;;;;;;;0.70;0.17;;;26.40;1.00;;;;;;4973588;28;20484;-71
2023/06/29 14:32:19;;;;;;;0.70;0.20;;;26.40;1.00;;;;;;4973098;28;20477;-71
2023/06/29 14:34:48;;;;;;;0.70;0.10;;;26.40;1.00;;;;;;4967659;28;20481;-70
2023/06/29 14:37:16;;;;;;;0.70;0.20;;;26.50;1.00;;;;;;4962583;28;20465;-71
2023/06/29 14:39:44;;;;;;;0.90;0.43;;;26.50;1.00;;;;;;4966353;28;20465;-71
2023/06/29 14:42:13;;;;;;;0.70;0.10;;;26.50;1.00;;;;;;4973136;28;20477;-71
2023/06/29 14:44:41;;;;;;;0.70;0.20;;;26.60;1.00;;;;;;4975228;28;20477;-72
2023/06/29 14:47:11;;;;;;;0.70;0.10;;;26.60;1.00;;;;;;4969120;28;20478;-71
2023/06/29 14:49:39;;;;;;;0.70;0.10;;;;;;;;;;4980004;28;20556;-73
2023/06/29 14:52:08;;;;;;;0.70;0.10;;;26.70;1.00;;;;;;4987886;28;20461;-71
2023/06/29 14:54:37;;;;;;;0.70;0.20;;;26.80;1.00;;;;;;4981112;28;20807;-72
2023/06/29 14:57:05;;;;;;;0.70;0.20;;;26.80;1.00;;;;;;4961689;28;20469;-71
2023/06/29 14:59:34;;;;;;;0.70;0.10;;;26.80;1.00;;;;;;4976548;28;20442;-71
2023/06/29 15:02:03;;;;;;;0.70;0.10;;;26.80;1.00;;;;;;4974468;28;20453;-70
2023/06/29 15:04:31;;;;;;;0.70;0.20;;;26.80;1.00;;;;;;4976194;28;20446;-72
2023/06/29 15:06:59;;;;;;;0.70;0.20;;;26.90;1.00;;;;;;4957328;28;21079;-71
2023/06/29 15:09:28;;;;;;;0.70;0.13;;;26.90;1.00;;;;;;4955903;29;20512;-71
2023/06/29 15:11:57;;;;;;;0.70;0.20;;;26.90;1.00;;;;;;4971676;28;20452;-70
2023/06/29 15:14:25;;;;;;;0.70;0.10;;;26.90;1.00;;;;;;4975732;28;20515;-71
2023/06/29 15:16:54;;;;;;;0.70;0.20;;;27.00;1.00;;;;;;4981583;28;20539;-70
2023/06/29 15:19:22;;;;;;;0.70;0.20;;;27.00;1.00;;;;;;4972450;28;20794;-71
2023/06/29 15:21:50;;;;;;;0.70;0.20;;;;;;;;;;4986450;28;20524;-72
2023/06/29 15:24:19;;;;;;;0.70;0.20;;;27.00;1.00;;;;;;4996343;28;20455;-71
2023/06/29 15:26:46;;;;;;;0.70;0.10;;;27.10;1.00;;;;;;4995676;28;21041;-73
2023/06/29 15:29:15;;;;;;;0.70;0.10;;;;;;;;;;4991149;28;20481;-72
2023/06/29 15:31:43;;;;;;;0.70;0.10;;;;;;;;;;4977295;28;20450;-73
2023/06/29 15:34:12;;;;;;;4.73;2.30;;;27.20;1.00;;;;;;4988190;28;20444;-71
2023/06/29 15:36:40;;;;;;;0.70;0.10;;;27.20;1.00;;;;;;4987644;28;20988;-70
2023/06/29 15:39:08;;;;;;;0.70;0.20;;;27.20;1.00;;;;;;4983992;28;20528;-72
2023/06/29 15:41:36;;;;;;;0.70;0.10;;;27.10;1.00;;;;;;4979667;28;20489;-72
2023/06/29 15:44:05;;;;;;;0.70;0.20;;;27.00;1.00;;;;;;4974808;28;20450;-72
2023/06/29 15:46:33;;;;;;;12.00;11.40;;;27.10;1.00;;;;;;4968098;28;20798;-72
2023/06/29 15:49:01;;;;;;;0.70;0.10;;;27.10;1.00;;;;;;4970820;28;20607;-71
2023/06/29 15:51:32;;;;;;;0.70;0.10;;;27.00;1.00;;;;;;4987848;28;20545;-71
2023/06/29 15:54:00;;;;;;;1.53;0.43;;;27.00;1.00;;;;;;4975303;28;20460;-72
2023/06/29 15:56:28;;;;;;;0.70;0.10;;;27.00;1.00;;;;;;4973338;28;20493;-72
2023/06/29 15:58:56;;;;;;;0.70;0.20;;;27.00;1.00;;;;;;4975467;28;20533;-71
2023/06/29 16:01:24;;;;;;;0.70;0.10;;;26.90;1.00;;;;;;4975643;28;20538;-73
2023/06/29 16:03:52;;;;;;;0.70;0.10;;;26.90;1.00;;;;;;4977462;28;20453;-72
2023/06/29 16:06:26;;;;;;;0.70;0.10;;;26.80;1.00;;;;;;4977022;28;20477;-72
2023/06/29 16:08:55;;;;;;;0.70;0.10;;;26.80;1.00;;;;;;4977752;28;20457;-71
2023/06/29 16:11:23;;;;;;;0.70;0.20;;;26.80;1.00;;;;;;4988726;28;20444;-72
2023/06/29 16:13:51;;;;;;;0.80;0.63;;;26.70;1.00;;;;;;4997316;28;20544;-72
2023/06/29 16:18:47;;;;;;;0.70;0.10;;;;;;;;;;4954138;29;20485;-68
2023/06/29 16:21:16;;;;;;;0.70;0.13;;;26.70;1.00;;;;;;4956071;29;20525;-69
2023/06/29 16:23:43;;;;;;;0.80;0.33;;;26.60;1.00;;;;;;4955739;29;20955;-68
2023/06/29 16:26:13;;;;;;;0.70;0.20;;;26.60;1.00;;;;;;4955873;29;20489;-69
2023/06/29 16:28:44;;;;;;;0.70;0.10;;;26.70;1.00;;;;;;4936427;29;20989;-68
2023/06/29 16:31:12;;;;;;;0.70;0.10;;;26.70;1.00;;;;;;4936378;29;20491;-68
2023/06/29 16:33:40;;;;;;;0.70;0.10;;;26.60;1.00;;;;;;4936655;29;20456;-69
2023/06/29 16:36:08;;;;;;;0.70;0.10;;;26.80;1.00;;;;;;4936224;29;20961;-69
2023/06/29 16:38:36;;;;;;;0.70;0.10;;;26.80;1.00;;;;;;4936548;29;20851;-68
2023/06/29 16:41:04;;;;;;;0.70;0.20;;;;;;;;;;4936279;29;20452;-68
2023/06/29 16:43:33;;;;;;;0.70;0.10;;;26.90;1.00;;;;;;4936452;29;20440;-69
2023/06/29 16:46:01;;;;;;;2.97;0.60;;;27.00;1.00;;;;;;4936324;29;20537;-68
2023/06/29 16:48:29;;;;;;;0.70;0.10;;;27.10;1.00;;;;;;4936044;29;20468;-68
2023/06/29 16:50:57;;;;;;;0.70;0.13;;;;;;;;;;4936451;29;20511;-69
2023/06/29 16:53:25;;;;;;;0.70;0.10;;;27.30;1.00;;;;;;4936280;29;20479;-68
2023/06/29 16:55:53;;;;;;;0.70;0.20;;;;;;;;;;4936642;29;20479;-69
2023/06/29 16:58:26;;;;;;;0.70;0.20;;;27.30;1.00;;;;;;4936090;29;20495;-69
2023/06/29 17:00:55;;;;;;;0.70;0.10;;;27.30;1.00;;;;;;4935988;29;20471;-69
2023/06/29 17:03:23;;;;;;;0.70;0.10;;;27.30;1.00;;;;;;4935578;29;20447;-69
2023/06/29 17:05:51;;;;;;;0.70;0.30;;;;;;;;;;4936141;29;20973;-69
2023/06/29 17:08:19;;;;;;;0.70;0.20;;;27.20;1.00;;;;;;4935995;29;20499;-68
2023/06/29 17:10:47;;;;;;;0.80;0.50;;;;;;;;;;4929518;29;20921;-69
2023/06/29 17:13:15;;;;;;;1.03;0.77;;;;;;;;;;4954853;28;20447;-68
2023/06/29 17:15:43;;;;;;;1.17;0.30;;;27.20;1.00;;;;;;4954770;28;20461;-68
2023/06/29 17:18:14;;;;;;;0.70;0.10;;;27.20;1.00;;;;;;4969750;28;20912;-69
2023/06/29 17:20:43;;;;;;;0.70;0.10;;;27.10;1.00;;;;;;4970983;28;20840;-68
2023/06/29 17:23:11;;;;;;;0.70;0.10;;;27.10;1.00;;;;;;4954856;29;20459;-69
2023/06/29 17:25:45;;;;;;;1.20;0.67;;;27.10;1.00;;;;;;4955018;29;20470;-70
2023/06/29 17:28:14;;;;;;;0.70;0.20;;;27.10;1.00;;;;;;4954719;29;20494;-69